Airfield :







YOU CAN JOIN US ON...

 
LOGIN :

Register | Disclaimer

   EN    FR    IT 

 









Legend :    VFR   Marginal VFR   IFR   Intensive IFR   Very Intensive IFR
Visi :
Ceiling :
>= 8 km
>= 3000ft
5 to 8 km
1000 to 3000 ft
1500m to 5 km
500 to 1000 ft
800 to 1500m
200 to 500 ft
< 800m
< 200 ft
Symbols :   Thunderstorms  Fog  Heavy snow  Heavy precipitations  Wind > 20 kt






- Airport Elevation : 244 ft
- IATA code : YQB


CYQB - Quebec - Jean Lesage Int.

CURRENT METAR :
  • 221028Z 07014G20KT 15SM FEW008 BKN220 08/05 A3019 RMK SF1CI6 SLP226

EXPIRED METARs :
  • 221000Z 07016KT 15SM BKN230 08/05 A3019 RMK CI6 SLP227
  • 220900Z 07014KT 15SM OVC200 08/05 A3020 RMK CI8 SLP231
  • 220800Z 07012KT 15SM SCT190 OVC240 08/06 A3019 RMK AC3CI5 SLP227

TAF TAF CYQB
Valid from the 22 at 06:00 until the 23 at 06:00 UTC


220538Z 2206/2306 05008KT P6SM OVC220
BECMG 2206/2208 06012KT
BECMG 2213/2215 07015KT
FM230300 07012KT P6SM OVC060
FM230500 07012KT P6SM -SHRA OVC025 RMK NXT FCST BY 221200Z
ATIS : ENG : +1 418-871-6893 FRA : +1 418-871-6895



MET'MAP, your aeronautical weather chart ! - Copyright ORBIFLY December 2007 - Disclaimer

ORBIFLY MET'MAP TEAM :

Programming & Development : Alexandra Zaïnal
Concept & Development : Baudouin d'Aumeries
Co-Development & Prog : Marc-Olivier Méhu
Technical & hardware support : Manuel Goepfert

Contact : metmap@orbifly.com




SOURCES & CREDITS :

   NOAA